AirNav   Everest Fuels
 
 808 users online  

1VA3 Tye River Airport
Lovingston, Virginia, USA

GOING TO LOVINGSTON?


FAA INFORMATION EFFECTIVE 26 MARCH 2020

Location

FAA Identifier: 1VA3
Lat/Long: 37-39-29.5100N 078-56-44.0800W
37-39.491833N 078-56.734667W
37.6581972,-78.9455778
(estimated)
Elevation: 650 ft. / 198 m (estimated)
Variation: 07W (1985)
From city: 7 miles SW of LOVINGSTON, VA
Time zone: UTC -4 (UTC -5 during Standard Time)
Zip code: 22922

Airport Operations

Airport use: Private use. Permission required prior to landing
Activation date: 05/1991
Control tower: no
ARTCC: WASHINGTON CENTER
FSS: LEESBURG FLIGHT SERVICE STATION
Attendance: UNATNDD
Segmented circle: no

Nearby radio navigation aids

VOR radial/distance  VOR name  Freq  Var
MOLr157/16.4MONTEBELLO VOR/DME115.3005W
LYHr035/27.9LYNCHBURG VOR/DME109.2005W

 
NDB name  Hdg/Dist  Freq  Var  ID
FARMVILLE316/30.336709WFVX ..-. ...- -..-

Airport Services

Runway Information

Runway 4/22

Dimensions: 1750 x 100 ft. / 533 x 30 m
Surface: turf
RUNWAY 4  RUNWAY 22
Traffic pattern: leftleft

Airport Ownership and Management from official FAA records

Ownership: Privately-owned
Owner: CAROL WALSH
485 TYE RIVER RD
ARRINGTON, VA 22922
Phone 434-263-5229
CELL: 434-941-9163
Manager: CAROL WALSH
485 TYE RIVER RD
ARRINGTON, VA 22922
Phone 434-263-5229

Airport Operational Statistics

Aircraft based on the field: 2
Single engine airplanes: 2
    

Additional Remarks

FOR CD CTC ROANOKE APCH AT 540-563-1307.

Instrument Procedures

There are no published instrument procedures at 1VA3.

Some nearby airports with instrument procedures:

W24 - Falwell Airport (19 nm SW)
KLYH - Lynchburg Regional Airport/Preston Glenn Field (23 nm SW)
W13 - Eagle's Nest Airport (25 nm N)
W90 - New London Airport (30 nm SW)
KFVX - Farmville Regional Airport (30 nm SE)
 
Loc | Ops | Rwys | IFR | FBO | Links
Com | Nav | Svcs | Stats | Notes
Area around 1VA3 (Tye River Airport)
 
Road maps at: MapQuest Bing Google
 
Aerial photo
No photo
 
Sectional chart

 
Airport distance calculator
Flying to Tye River Airport? Find the distance to fly.

From to 1VA3

Sunrise and sunset
Times for 04-Apr-2020
 Local
(UTC-4)
 Zulu
(UTC)
Morning civil twilight06:3010:30
Sunrise06:5610:56
Sunset19:4123:41
Evening civil twilight20:0700:07

Current date and time
Zulu (UTC)  04-Apr-2020 22:00:16
Local (UTC-4)  04-Apr-2020 18:00:16
 
METAR
KLYH 
24nm SW 
042154Z 14004KT 10SM CLR 22/02 A2992 RMK AO2 SLP128 T02170017 $
KW13 
25nm N 
042135Z AUTO 36004KT 10SM CLR 18/05 A2995 RMK AO1 T01810046
K0V4 
31nm S 
042155Z AUTO 13005KT 10SM CLR 21/03 A2992 RMK AO1 T02140028
KFVX 
31nm SE 
042135Z AUTO 06006KT 10SM CLR 20/05 A2993 RMK AO2 T01950051
KSHD 
37nm N 
042135Z AUTO 05007KT 10SM CLR 19/06 A2996 RMK AO2 T01850055
KCHO 
37nm NE 
042153Z 05010KT 10SM CLR 19/06 A2996 RMK AO2 SLP144 T01890056
KVBW 
43nm N 
042155Z AUTO 07006KT 10SM SCT080 18/05 A2995 RMK AO1 T01810054
KHSP 
45nm NW 
042155Z AUTO 34010G14KT 10SM CLR 16/M13 A2998 RMK AO2 T01561132
KGVE 
47nm NE 
042155Z AUTO 04008KT 10SM SCT080 17/06 A2997 RMK AO1 T01740058
TAF
KLYH 
24nm SW 
041733Z 0418/0518 02005KT P6SM SKC FM042100 06006KT P6SM FEW045 FM050300 VRB03KT P6SM SCT200 FM051400 21004KT P6SM BKN180
NOTAMs
Click for the latest NOTAMs
NOTAMs are issued by the DoD/FAA and will open in a separate window not controlled by AirNav.

 

 
 

Would you like to see your business listed on this page?

 If your business provides an interesting product or service to pilots, flight crews, aircraft, or users of the Tye River Airport, you should consider listing it here.  To start the listing process, click on the button below
 
Add a business
 

Other Pages about Tye River Airport

Update a link
 
Copyright © AirNav, LLC. All rights reserved. Privacy Policy  Contact